sensor_id;sensor_type;location;lat;lon;timestamp;P1;durP1;ratioP1;P2;durP2;ratioP2
78346;SDS011;67803;41.330;69.282;2023-05-08T00:02:13;11.00;;;5.60;;
78346;SDS011;67803;41.330;69.282;2023-05-08T00:04:44;12.60;;;5.97;;
78346;SDS011;67803;41.330;69.282;2023-05-08T00:07:14;11.80;;;6.30;;
78346;SDS011;67803;41.330;69.282;2023-05-08T00:09:45;11.30;;;5.75;;
78346;SDS011;67803;41.330;69.282;2023-05-08T00:12:16;10.43;;;5.78;;
78346;SDS011;67803;41.330;69.282;2023-05-08T00:14:46;12.32;;;5.82;;
78346;SDS011;67803;41.330;69.282;2023-05-08T00:17:17;10.50;;;5.93;;
78346;SDS011;67803;41.330;69.282;2023-05-08T00:19:47;10.10;;;5.55;;
78346;SDS011;67803;41.330;69.282;2023-05-08T00:22:18;10.38;;;5.82;;
78346;SDS011;67803;41.330;69.282;2023-05-08T00:24:48;10.70;;;5.53;;
78346;SDS011;67803;41.330;69.282;2023-05-08T00:27:20;8.63;;;5.63;;
78346;SDS011;67803;41.330;69.282;2023-05-08T00:29:50;9.15;;;5.28;;
78346;SDS011;67803;41.330;69.282;2023-05-08T00:32:21;8.20;;;5.78;;
78346;SDS011;67803;41.330;69.282;2023-05-08T00:34:53;11.40;;;5.22;;
78346;SDS011;67803;41.330;69.282;2023-05-08T00:37:23;7.53;;;5.03;;
78346;SDS011;67803;41.330;69.282;2023-05-08T00:39:54;8.75;;;5.35;;
78346;SDS011;67803;41.330;69.282;2023-05-08T00:42:24;11.10;;;5.93;;
78346;SDS011;67803;41.330;69.282;2023-05-08T00:44:54;8.23;;;4.68;;
78346;SDS011;67803;41.330;69.282;2023-05-08T00:47:25;10.38;;;4.82;;
78346;SDS011;67803;41.330;69.282;2023-05-08T00:49:56;10.45;;;5.03;;
78346;SDS011;67803;41.330;69.282;2023-05-08T00:52:27;8.63;;;5.10;;
78346;SDS011;67803;41.330;69.282;2023-05-08T00:54:59;7.05;;;5.18;;
78346;SDS011;67803;41.330;69.282;2023-05-08T00:57:31;8.13;;;5.43;;
78346;SDS011;67803;41.330;69.282;2023-05-08T01:00:02;8.13;;;4.43;;
78346;SDS011;67803;41.330;69.282;2023-05-08T01:02:33;7.63;;;4.65;;
78346;SDS011;67803;41.330;69.282;2023-05-08T01:05:04;10.68;;;4.93;;
78346;SDS011;67803;41.330;69.282;2023-05-08T01:07:35;9.30;;;5.28;;
78346;SDS011;67803;41.330;69.282;2023-05-08T01:10:05;11.55;;;5.60;;
78346;SDS011;67803;41.330;69.282;2023-05-08T01:20:39;16.80;;;9.88;;
78346;SDS011;67803;41.330;69.282;2023-05-08T01:31:42;15.63;;;8.05;;
78346;SDS011;67803;41.330;69.282;2023-05-08T01:34:18;12.20;;;7.47;;
78346;SDS011;67803;41.330;69.282;2023-05-08T01:36:52;16.60;;;7.63;;
78346;SDS011;67803;41.330;69.282;2023-05-08T01:44:46;15.18;;;7.10;;
78346;SDS011;67803;41.330;69.282;2023-05-08T01:47:18;13.10;;;6.90;;
78346;SDS011;67803;41.330;69.282;2023-05-08T01:49:54;16.70;;;6.57;;
78346;SDS011;67803;41.330;69.282;2023-05-08T01:52:36;14.52;;;6.90;;
78346;SDS011;67803;41.330;69.282;2023-05-08T01:55:10;11.10;;;6.25;;
78346;SDS011;67803;41.330;69.282;2023-05-08T01:57:42;12.85;;;6.05;;
78346;SDS011;67803;41.330;69.282;2023-05-08T02:00:16;13.88;;;6.65;;
78346;SDS011;67803;41.330;69.282;2023-05-08T02:02:49;11.70;;;5.82;;
78346;SDS011;67803;41.330;69.282;2023-05-08T02:05:20;16.85;;;6.97;;
78346;SDS011;67803;41.330;69.282;2023-05-08T02:07:51;12.52;;;5.85;;
78346;SDS011;67803;41.330;69.282;2023-05-08T02:10:23;11.07;;;6.18;;
78346;SDS011;67803;41.330;69.282;2023-05-08T02:12:54;13.68;;;6.75;;
78346;SDS011;67803;41.330;69.282;2023-05-08T02:15:25;12.02;;;6.07;;
78346;SDS011;67803;41.330;69.282;2023-05-08T02:17:56;13.27;;;6.60;;
78346;SDS011;67803;41.330;69.282;2023-05-08T02:20:28;11.13;;;6.32;;
78346;SDS011;67803;41.330;69.282;2023-05-08T02:22:59;13.15;;;6.57;;
78346;SDS011;67803;41.330;69.282;2023-05-08T02:25:31;13.75;;;6.50;;
78346;SDS011;67803;41.330;69.282;2023-05-08T02:28:02;12.77;;;5.78;;
78346;SDS011;67803;41.330;69.282;2023-05-08T02:30:32;12.32;;;6.28;;
78346;SDS011;67803;41.330;69.282;2023-05-08T02:33:03;16.70;;;6.53;;
78346;SDS011;67803;41.330;69.282;2023-05-08T02:35:36;12.05;;;6.68;;
78346;SDS011;67803;41.330;69.282;2023-05-08T02:38:07;15.00;;;6.95;;
78346;SDS011;67803;41.330;69.282;2023-05-08T02:40:41;15.15;;;6.18;;
78346;SDS011;67803;41.330;69.282;2023-05-08T02:43:13;14.35;;;7.05;;
78346;SDS011;67803;41.330;69.282;2023-05-08T02:48:33;11.52;;;6.05;;
78346;SDS011;67803;41.330;69.282;2023-05-08T02:53:36;15.75;;;6.40;;
78346;SDS011;67803;41.330;69.282;2023-05-08T02:56:11;10.55;;;5.60;;
78346;SDS011;67803;41.330;69.282;2023-05-08T02:59:17;15.15;;;5.75;;
78346;SDS011;67803;41.330;69.282;2023-05-08T03:04:11;12.27;;;6.32;;
78346;SDS011;67803;41.330;69.282;2023-05-08T03:06:45;13.45;;;6.03;;
78346;SDS011;67803;41.330;69.282;2023-05-08T03:09:18;11.27;;;5.95;;
78346;SDS011;67803;41.330;69.282;2023-05-08T03:11:50;8.57;;;5.63;;
78346;SDS011;67803;41.330;69.282;2023-05-08T03:14:22;9.85;;;5.28;;
78346;SDS011;67803;41.330;69.282;2023-05-08T03:16:54;13.75;;;6.00;;
78346;SDS011;67803;41.330;69.282;2023-05-08T03:19:27;12.13;;;5.13;;
78346;SDS011;67803;41.330;69.282;2023-05-08T03:21:59;19.13;;;6.07;;
78346;SDS011;67803;41.330;69.282;2023-05-08T03:24:32;9.70;;;6.15;;
78346;SDS011;67803;41.330;69.282;2023-05-08T03:27:03;12.18;;;6.00;;
78346;SDS011;67803;41.330;69.282;2023-05-08T03:29:35;14.10;;;5.95;;
78346;SDS011;67803;41.330;69.282;2023-05-08T03:32:05;9.90;;;5.53;;
78346;SDS011;67803;41.330;69.282;2023-05-08T03:34:36;19.85;;;6.53;;
78346;SDS011;67803;41.330;69.282;2023-05-08T03:37:07;19.75;;;5.93;;
78346;SDS011;67803;41.330;69.282;2023-05-08T03:39:38;21.05;;;6.20;;
78346;SDS011;67803;41.330;69.282;2023-05-08T03:42:08;16.75;;;5.75;;
78346;SDS011;67803;41.330;69.282;2023-05-08T03:44:40;15.20;;;5.40;;
78346;SDS011;67803;41.330;69.282;2023-05-08T03:47:11;14.90;;;6.55;;
78346;SDS011;67803;41.330;69.282;2023-05-08T03:49:42;10.32;;;6.03;;
78346;SDS011;67803;41.330;69.282;2023-05-08T03:52:14;12.52;;;5.95;;
78346;SDS011;67803;41.330;69.282;2023-05-08T03:54:45;20.17;;;5.93;;
78346;SDS011;67803;41.330;69.282;2023-05-08T03:57:15;12.90;;;6.47;;
78346;SDS011;67803;41.330;69.282;2023-05-08T04:02:24;15.20;;;6.65;;
78346;SDS011;67803;41.330;69.282;2023-05-08T04:05:01;14.23;;;6.47;;
78346;SDS011;67803;41.330;69.282;2023-05-08T04:07:46;11.32;;;6.03;;
78346;SDS011;67803;41.330;69.282;2023-05-08T04:10:20;10.60;;;5.70;;
78346;SDS011;67803;41.330;69.282;2023-05-08T04:12:56;13.52;;;5.65;;
78346;SDS011;67803;41.330;69.282;2023-05-08T04:15:33;14.35;;;5.75;;
78346;SDS011;67803;41.330;69.282;2023-05-08T04:18:08;8.75;;;4.22;;
78346;SDS011;67803;41.330;69.282;2023-05-08T04:23:09;16.73;;;5.83;;
78346;SDS011;67803;41.330;69.282;2023-05-08T04:25:43;10.45;;;5.72;;
78346;SDS011;67803;41.330;69.282;2023-05-08T04:28:14;12.90;;;5.30;;
78346;SDS011;67803;41.330;69.282;2023-05-08T04:30:45;8.85;;;4.80;;
78346;SDS011;67803;41.330;69.282;2023-05-08T04:33:15;12.13;;;5.07;;
78346;SDS011;67803;41.330;69.282;2023-05-08T04:35:47;13.35;;;5.15;;
78346;SDS011;67803;41.330;69.282;2023-05-08T04:38:18;12.75;;;5.72;;
78346;SDS011;67803;41.330;69.282;2023-05-08T04:40:49;13.35;;;5.13;;
78346;SDS011;67803;41.330;69.282;2023-05-08T04:43:19;14.57;;;6.15;;
78346;SDS011;67803;41.330;69.282;2023-05-08T04:45:50;14.57;;;6.03;;
78346;SDS011;67803;41.330;69.282;2023-05-08T04:48:20;14.18;;;7.03;;
78346;SDS011;67803;41.330;69.282;2023-05-08T04:50:51;14.50;;;6.93;;
78346;SDS011;67803;41.330;69.282;2023-05-08T04:53:21;13.80;;;6.63;;
78346;SDS011;67803;41.330;69.282;2023-05-08T04:55:52;18.70;;;6.78;;
78346;SDS011;67803;41.330;69.282;2023-05-08T04:58:22;17.45;;;7.15;;
78346;SDS011;67803;41.330;69.282;2023-05-08T05:00:53;18.25;;;6.45;;
78346;SDS011;67803;41.330;69.282;2023-05-08T05:03:23;18.35;;;6.30;;
78346;SDS011;67803;41.330;69.282;2023-05-08T05:05:57;14.77;;;5.65;;
78346;SDS011;67803;41.330;69.282;2023-05-08T05:08:28;14.77;;;5.18;;
78346;SDS011;67803;41.330;69.282;2023-05-08T05:10:58;16.00;;;5.60;;
78346;SDS011;67803;41.330;69.282;2023-05-08T05:13:29;13.63;;;5.50;;
78346;SDS011;67803;41.330;69.282;2023-05-08T05:15:59;15.18;;;5.95;;
78346;SDS011;67803;41.330;69.282;2023-05-08T05:18:30;14.85;;;6.47;;
78346;SDS011;67803;41.330;69.282;2023-05-08T05:21:00;19.83;;;6.15;;
78346;SDS011;67803;41.330;69.282;2023-05-08T05:23:31;15.77;;;6.28;;
78346;SDS011;67803;41.330;69.282;2023-05-08T05:26:03;19.02;;;6.18;;
78346;SDS011;67803;41.330;69.282;2023-05-08T05:28:33;13.52;;;5.93;;
78346;SDS011;67803;41.330;69.282;2023-05-08T05:31:04;12.73;;;6.05;;
78346;SDS011;67803;41.330;69.282;2023-05-08T05:33:34;16.80;;;6.20;;
78346;SDS011;67803;41.330;69.282;2023-05-08T05:36:05;22.27;;;6.28;;
78346;SDS011;67803;41.330;69.282;2023-05-08T05:38:35;19.73;;;5.80;;
78346;SDS011;67803;41.330;69.282;2023-05-08T05:41:06;15.70;;;6.15;;
78346;SDS011;67803;41.330;69.282;2023-05-08T05:43:36;14.85;;;5.88;;
78346;SDS011;67803;41.330;69.282;2023-05-08T05:46:07;16.42;;;5.60;;
78346;SDS011;67803;41.330;69.282;2023-05-08T05:48:37;17.63;;;5.70;;
78346;SDS011;67803;41.330;69.282;2023-05-08T05:51:08;14.65;;;5.40;;
78346;SDS011;67803;41.330;69.282;2023-05-08T05:53:38;15.10;;;6.47;;
78346;SDS011;67803;41.330;69.282;2023-05-08T05:56:08;19.45;;;5.65;;
78346;SDS011;67803;41.330;69.282;2023-05-08T05:58:39;12.73;;;4.85;;
78346;SDS011;67803;41.330;69.282;2023-05-08T06:01:13;13.48;;;5.25;;
78346;SDS011;67803;41.330;69.282;2023-05-08T06:03:44;15.02;;;5.38;;
78346;SDS011;67803;41.330;69.282;2023-05-08T06:06:14;20.13;;;5.93;;
78346;SDS011;67803;41.330;69.282;2023-05-08T06:08:45;18.88;;;6.28;;
78346;SDS011;67803;41.330;69.282;2023-05-08T06:11:15;13.98;;;5.78;;
78346;SDS011;67803;41.330;69.282;2023-05-08T06:13:46;16.25;;;5.38;;
78346;SDS011;67803;41.330;69.282;2023-05-08T06:16:16;18.42;;;5.82;;
78346;SDS011;67803;41.330;69.282;2023-05-08T06:18:49;20.60;;;6.35;;
78346;SDS011;67803;41.330;69.282;2023-05-08T06:21:20;18.73;;;6.30;;
78346;SDS011;67803;41.330;69.282;2023-05-08T06:23:50;23.42;;;6.40;;
78346;SDS011;67803;41.330;69.282;2023-05-08T06:26:21;16.30;;;5.75;;
78346;SDS011;67803;41.330;69.282;2023-05-08T06:28:52;17.73;;;6.65;;
78346;SDS011;67803;41.330;69.282;2023-05-08T06:31:22;17.00;;;6.15;;
78346;SDS011;67803;41.330;69.282;2023-05-08T06:33:53;15.13;;;6.10;;
78346;SDS011;67803;41.330;69.282;2023-05-08T06:36:23;16.65;;;6.65;;
78346;SDS011;67803;41.330;69.282;2023-05-08T06:38:54;18.50;;;7.00;;
78346;SDS011;67803;41.330;69.282;2023-05-08T06:41:24;20.25;;;7.05;;
78346;SDS011;67803;41.330;69.282;2023-05-08T06:43:55;16.15;;;6.75;;
78346;SDS011;67803;41.330;69.282;2023-05-08T06:46:25;18.02;;;6.57;;
78346;SDS011;67803;41.330;69.282;2023-05-08T06:48:56;19.13;;;6.68;;
78346;SDS011;67803;41.330;69.282;2023-05-08T06:51:26;22.95;;;6.65;;
78346;SDS011;67803;41.330;69.282;2023-05-08T06:53:57;20.50;;;6.38;;
78346;SDS011;67803;41.330;69.282;2023-05-08T06:56:27;22.27;;;7.50;;
78346;SDS011;67803;41.330;69.282;2023-05-08T06:58:58;16.38;;;6.18;;
78346;SDS011;67803;41.330;69.282;2023-05-08T07:01:28;20.55;;;6.38;;
78346;SDS011;67803;41.330;69.282;2023-05-08T07:03:59;20.15;;;6.50;;
78346;SDS011;67803;41.330;69.282;2023-05-08T07:06:30;27.90;;;9.02;;
78346;SDS011;67803;41.330;69.282;2023-05-08T07:09:00;22.38;;;7.28;;
78346;SDS011;67803;41.330;69.282;2023-05-08T07:11:31;19.30;;;7.50;;
78346;SDS011;67803;41.330;69.282;2023-05-08T07:14:02;18.52;;;7.22;;
78346;SDS011;67803;41.330;69.282;2023-05-08T07:16:33;13.27;;;6.43;;
78346;SDS011;67803;41.330;69.282;2023-05-08T07:19:04;15.57;;;6.47;;
78346;SDS011;67803;41.330;69.282;2023-05-08T07:21:34;13.98;;;6.28;;
78346;SDS011;67803;41.330;69.282;2023-05-08T07:24:05;16.17;;;5.85;;
78346;SDS011;67803;41.330;69.282;2023-05-08T07:26:35;19.08;;;5.80;;
78346;SDS011;67803;41.330;69.282;2023-05-08T07:29:06;16.60;;;5.55;;
78346;SDS011;67803;41.330;69.282;2023-05-08T07:31:38;13.40;;;5.40;;
78346;SDS011;67803;41.330;69.282;2023-05-08T07:34:09;13.73;;;6.18;;
78346;SDS011;67803;41.330;69.282;2023-05-08T07:36:39;14.48;;;5.88;;
78346;SDS011;67803;41.330;69.282;2023-05-08T07:39:10;16.52;;;6.10;;
78346;SDS011;67803;41.330;69.282;2023-05-08T07:41:40;25.45;;;7.32;;
78346;SDS011;67803;41.330;69.282;2023-05-08T07:44:11;18.50;;;6.28;;
78346;SDS011;67803;41.330;69.282;2023-05-08T07:46:41;14.77;;;6.55;;
78346;SDS011;67803;41.330;69.282;2023-05-08T07:49:12;22.20;;;5.70;;
78346;SDS011;67803;41.330;69.282;2023-05-08T07:51:42;21.10;;;6.53;;
78346;SDS011;67803;41.330;69.282;2023-05-08T07:54:13;16.67;;;6.57;;
78346;SDS011;67803;41.330;69.282;2023-05-08T07:56:43;16.05;;;6.60;;
78346;SDS011;67803;41.330;69.282;2023-05-08T07:59:14;20.02;;;5.55;;
78346;SDS011;67803;41.330;69.282;2023-05-08T08:01:44;18.77;;;6.55;;
78346;SDS011;67803;41.330;69.282;2023-05-08T08:04:16;12.65;;;5.75;;
78346;SDS011;67803;41.330;69.282;2023-05-08T08:06:46;12.82;;;5.18;;
78346;SDS011;67803;41.330;69.282;2023-05-08T08:09:17;15.18;;;6.30;;
78346;SDS011;67803;41.330;69.282;2023-05-08T08:11:47;16.80;;;6.57;;
78346;SDS011;67803;41.330;69.282;2023-05-08T08:14:18;16.08;;;5.82;;
78346;SDS011;67803;41.330;69.282;2023-05-08T08:16:48;15.35;;;5.63;;
78346;SDS011;67803;41.330;69.282;2023-05-08T08:19:19;13.00;;;5.15;;
78346;SDS011;67803;41.330;69.282;2023-05-08T08:21:49;15.90;;;5.20;;
78346;SDS011;67803;41.330;69.282;2023-05-08T08:24:20;16.15;;;5.10;;
78346;SDS011;67803;41.330;69.282;2023-05-08T08:26:50;11.02;;;4.90;;
78346;SDS011;67803;41.330;69.282;2023-05-08T08:29:21;12.30;;;4.47;;
78346;SDS011;67803;41.330;69.282;2023-05-08T08:31:51;13.73;;;5.68;;
78346;SDS011;67803;41.330;69.282;2023-05-08T08:34:22;14.52;;;4.85;;
78346;SDS011;67803;41.330;69.282;2023-05-08T08:36:52;15.93;;;5.20;;
78346;SDS011;67803;41.330;69.282;2023-05-08T08:39:23;10.80;;;5.28;;
78346;SDS011;67803;41.330;69.282;2023-05-08T08:41:53;13.27;;;4.97;;
78346;SDS011;67803;41.330;69.282;2023-05-08T08:44:24;13.65;;;5.18;;
78346;SDS011;67803;41.330;69.282;2023-05-08T08:46:54;12.77;;;5.13;;
78346;SDS011;67803;41.330;69.282;2023-05-08T08:49:30;13.20;;;5.18;;
78346;SDS011;67803;41.330;69.282;2023-05-08T08:54:32;16.20;;;4.75;;
78346;SDS011;67803;41.330;69.282;2023-05-08T08:57:04;12.52;;;4.88;;
78346;SDS011;67803;41.330;69.282;2023-05-08T08:59:37;12.00;;;5.20;;
78346;SDS011;67803;41.330;69.282;2023-05-08T09:02:09;14.18;;;6.13;;
78346;SDS011;67803;41.330;69.282;2023-05-08T09:04:40;11.75;;;5.00;;
78346;SDS011;67803;41.330;69.282;2023-05-08T09:07:11;13.55;;;5.57;;
78346;SDS011;67803;41.330;69.282;2023-05-08T09:09:41;11.02;;;5.38;;
78346;SDS011;67803;41.330;69.282;2023-05-08T09:12:13;14.48;;;5.18;;
78346;SDS011;67803;41.330;69.282;2023-05-08T09:14:44;14.77;;;6.13;;
78346;SDS011;67803;41.330;69.282;2023-05-08T09:17:14;15.30;;;5.35;;
78346;SDS011;67803;41.330;69.282;2023-05-08T09:19:47;13.95;;;5.45;;
78346;SDS011;67803;41.330;69.282;2023-05-08T09:22:17;10.93;;;4.88;;
78346;SDS011;67803;41.330;69.282;2023-05-08T09:24:59;14.65;;;5.53;;
78346;SDS011;67803;41.330;69.282;2023-05-08T09:27:30;16.70;;;6.03;;
78346;SDS011;67803;41.330;69.282;2023-05-08T09:30:05;19.73;;;6.35;;
78346;SDS011;67803;41.330;69.282;2023-05-08T09:32:36;14.15;;;6.93;;
78346;SDS011;67803;41.330;69.282;2023-05-08T09:35:08;19.90;;;5.68;;
78346;SDS011;67803;41.330;69.282;2023-05-08T09:37:39;13.07;;;5.20;;
78346;SDS011;67803;41.330;69.282;2023-05-08T09:40:13;24.55;;;6.20;;
78346;SDS011;67803;41.330;69.282;2023-05-08T09:42:44;14.45;;;5.22;;
78346;SDS011;67803;41.330;69.282;2023-05-08T09:45:28;19.90;;;6.60;;
78346;SDS011;67803;41.330;69.282;2023-05-08T09:48:00;14.45;;;6.07;;
78346;SDS011;67803;41.330;69.282;2023-05-08T09:50:30;16.23;;;6.30;;
78346;SDS011;67803;41.330;69.282;2023-05-08T09:53:02;15.13;;;5.70;;
78346;SDS011;67803;41.330;69.282;2023-05-08T09:55:45;10.18;;;4.93;;
78346;SDS011;67803;41.330;69.282;2023-05-08T09:58:16;13.05;;;5.68;;
78346;SDS011;67803;41.330;69.282;2023-05-08T10:00:46;11.90;;;5.28;;
78346;SDS011;67803;41.330;69.282;2023-05-08T10:03:17;13.13;;;5.32;;
78346;SDS011;67803;41.330;69.282;2023-05-08T10:05:47;11.60;;;5.32;;
78346;SDS011;67803;41.330;69.282;2023-05-08T10:10:48;12.20;;;5.50;;
78346;SDS011;67803;41.330;69.282;2023-05-08T10:13:19;11.93;;;4.72;;
78346;SDS011;67803;41.330;69.282;2023-05-08T10:15:50;12.20;;;5.05;;
78346;SDS011;67803;41.330;69.282;2023-05-08T10:18:23;12.55;;;5.38;;
78346;SDS011;67803;41.330;69.282;2023-05-08T10:20:54;13.10;;;5.13;;
78346;SDS011;67803;41.330;69.282;2023-05-08T10:23:27;22.27;;;6.50;;
78346;SDS011;67803;41.330;69.282;2023-05-08T10:25:58;12.57;;;5.40;;
78346;SDS011;67803;41.330;69.282;2023-05-08T10:28:42;10.30;;;4.53;;
78346;SDS011;67803;41.330;69.282;2023-05-08T10:31:13;13.63;;;5.78;;
78346;SDS011;67803;41.330;69.282;2023-05-08T10:33:46;12.65;;;5.65;;
78346;SDS011;67803;41.330;69.282;2023-05-08T10:36:20;14.88;;;4.95;;
78346;SDS011;67803;41.330;69.282;2023-05-08T10:38:52;15.00;;;4.85;;
78346;SDS011;67803;41.330;69.282;2023-05-08T10:41:23;12.63;;;4.95;;
78346;SDS011;67803;41.330;69.282;2023-05-08T10:43:53;14.50;;;5.35;;
78346;SDS011;67803;41.330;69.282;2023-05-08T10:46:28;14.68;;;5.60;;
78346;SDS011;67803;41.330;69.282;2023-05-08T10:49:04;10.60;;;4.75;;
78346;SDS011;67803;41.330;69.282;2023-05-08T10:51:51;18.25;;;5.75;;
78346;SDS011;67803;41.330;69.282;2023-05-08T10:57:12;9.75;;;4.72;;
78346;SDS011;67803;41.330;69.282;2023-05-08T10:59:44;13.02;;;5.10;;
78346;SDS011;67803;41.330;69.282;2023-05-08T11:02:15;11.32;;;4.78;;
78346;SDS011;67803;41.330;69.282;2023-05-08T11:05:14;14.13;;;5.25;;
78346;SDS011;67803;41.330;69.282;2023-05-08T11:07:52;16.48;;;5.07;;
78346;SDS011;67803;41.330;69.282;2023-05-08T11:10:28;13.75;;;4.88;;
78346;SDS011;67803;41.330;69.282;2023-05-08T11:12:59;13.65;;;4.90;;
78346;SDS011;67803;41.330;69.282;2023-05-08T11:15:36;11.15;;;4.68;;
78346;SDS011;67803;41.330;69.282;2023-05-08T11:18:09;13.27;;;5.45;;
78346;SDS011;67803;41.330;69.282;2023-05-08T11:20:41;12.82;;;5.72;;
78346;SDS011;67803;41.330;69.282;2023-05-08T11:23:30;13.43;;;5.57;;
78346;SDS011;67803;41.330;69.282;2023-05-08T11:28:37;10.50;;;3.92;;
78346;SDS011;67803;41.330;69.282;2023-05-08T11:31:08;11.43;;;4.97;;
78346;SDS011;67803;41.330;69.282;2023-05-08T11:33:38;15.02;;;5.15;;
78346;SDS011;67803;41.330;69.282;2023-05-08T11:36:14;16.35;;;5.88;;
78346;SDS011;67803;41.330;69.282;2023-05-08T11:39:04;11.20;;;4.82;;
78346;SDS011;67803;41.330;69.282;2023-05-08T11:41:34;13.13;;;5.53;;
78346;SDS011;67803;41.330;69.282;2023-05-08T11:49:12;15.52;;;5.38;;
78346;SDS011;67803;41.330;69.282;2023-05-08T11:51:44;15.90;;;5.43;;
78346;SDS011;67803;41.330;69.282;2023-05-08T11:54:16;13.95;;;5.80;;
78346;SDS011;67803;41.330;69.282;2023-05-08T11:56:47;14.10;;;5.93;;
78346;SDS011;67803;41.330;69.282;2023-05-08T11:59:18;17.75;;;6.57;;
78346;SDS011;67803;41.330;69.282;2023-05-08T12:01:49;9.30;;;4.68;;
78346;SDS011;67803;41.330;69.282;2023-05-08T12:04:20;12.13;;;5.45;;
78346;SDS011;67803;41.330;69.282;2023-05-08T12:06:50;13.30;;;6.78;;
78346;SDS011;67803;41.330;69.282;2023-05-08T12:09:26;12.77;;;5.18;;
78346;SDS011;67803;41.330;69.282;2023-05-08T12:11:56;10.02;;;4.47;;
78346;SDS011;67803;41.330;69.282;2023-05-08T12:14:27;18.05;;;5.80;;
78346;SDS011;67803;41.330;69.282;2023-05-08T12:16:57;14.82;;;5.45;;
78346;SDS011;67803;41.330;69.282;2023-05-08T12:19:28;15.43;;;5.22;;
78346;SDS011;67803;41.330;69.282;2023-05-08T12:21:58;10.32;;;4.22;;
78346;SDS011;67803;41.330;69.282;2023-05-08T12:24:29;15.23;;;5.13;;
78346;SDS011;67803;41.330;69.282;2023-05-08T12:26:59;12.45;;;5.07;;
78346;SDS011;67803;41.330;69.282;2023-05-08T12:29:34;10.15;;;4.63;;
78346;SDS011;67803;41.330;69.282;2023-05-08T12:32:04;14.10;;;4.93;;
78346;SDS011;67803;41.330;69.282;2023-05-08T12:34:35;15.02;;;4.65;;
78346;SDS011;67803;41.330;69.282;2023-05-08T12:37:05;14.00;;;4.63;;
78346;SDS011;67803;41.330;69.282;2023-05-08T12:39:36;15.23;;;4.85;;
78346;SDS011;67803;41.330;69.282;2023-05-08T12:42:09;13.48;;;5.18;;
78346;SDS011;67803;41.330;69.282;2023-05-08T12:44:39;14.23;;;5.00;;
78346;SDS011;67803;41.330;69.282;2023-05-08T12:47:10;15.20;;;5.70;;
78346;SDS011;67803;41.330;69.282;2023-05-08T12:49:41;20.40;;;5.18;;
78346;SDS011;67803;41.330;69.282;2023-05-08T12:52:12;10.32;;;4.55;;
78346;SDS011;67803;41.330;69.282;2023-05-08T12:54:45;13.00;;;4.93;;
78346;SDS011;67803;41.330;69.282;2023-05-08T12:57:17;13.15;;;4.97;;
78346;SDS011;67803;41.330;69.282;2023-05-08T12:59:48;13.23;;;4.85;;
78346;SDS011;67803;41.330;69.282;2023-05-08T13:02:20;18.85;;;5.57;;
78346;SDS011;67803;41.330;69.282;2023-05-08T13:04:53;13.40;;;5.03;;
78346;SDS011;67803;41.330;69.282;2023-05-08T13:07:30;8.95;;;4.50;;
78346;SDS011;67803;41.330;69.282;2023-05-08T13:10:00;18.30;;;5.70;;
78346;SDS011;67803;41.330;69.282;2023-05-08T13:12:33;13.00;;;5.88;;
78346;SDS011;67803;41.330;69.282;2023-05-08T13:15:04;12.98;;;5.03;;
78346;SDS011;67803;41.330;69.282;2023-05-08T13:17:35;12.85;;;5.95;;
78346;SDS011;67803;41.330;69.282;2023-05-08T13:20:05;12.68;;;5.20;;
78346;SDS011;67803;41.330;69.282;2023-05-08T13:22:36;15.57;;;5.95;;
78346;SDS011;67803;41.330;69.282;2023-05-08T13:25:07;12.10;;;5.35;;
78346;SDS011;67803;41.330;69.282;2023-05-08T13:27:37;17.48;;;5.95;;
78346;SDS011;67803;41.330;69.282;2023-05-08T13:30:08;17.45;;;5.53;;
78346;SDS011;67803;41.330;69.282;2023-05-08T13:32:39;15.38;;;5.28;;
78346;SDS011;67803;41.330;69.282;2023-05-08T13:35:09;13.43;;;5.30;;
78346;SDS011;67803;41.330;69.282;2023-05-08T13:37:39;11.55;;;5.13;;
78346;SDS011;67803;41.330;69.282;2023-05-08T13:40:10;19.42;;;5.30;;
78346;SDS011;67803;41.330;69.282;2023-05-08T13:42:41;17.55;;;6.15;;
78346;SDS011;67803;41.330;69.282;2023-05-08T13:45:11;15.70;;;5.60;;
78346;SDS011;67803;41.330;69.282;2023-05-08T13:47:45;13.65;;;5.25;;
78346;SDS011;67803;41.330;69.282;2023-05-08T13:50:16;19.08;;;6.45;;
78346;SDS011;67803;41.330;69.282;2023-05-08T13:52:48;14.95;;;6.00;;
78346;SDS011;67803;41.330;69.282;2023-05-08T13:55:19;19.13;;;6.50;;
78346;SDS011;67803;41.330;69.282;2023-05-08T13:57:51;15.88;;;5.85;;
78346;SDS011;67803;41.330;69.282;2023-05-08T14:00:21;20.55;;;6.13;;
78346;SDS011;67803;41.330;69.282;2023-05-08T14:02:52;20.95;;;6.03;;
78346;SDS011;67803;41.330;69.282;2023-05-08T14:05:22;17.58;;;5.82;;
78346;SDS011;67803;41.330;69.282;2023-05-08T14:07:53;16.08;;;6.65;;
78346;SDS011;67803;41.330;69.282;2023-05-08T14:10:23;20.05;;;6.03;;
78346;SDS011;67803;41.330;69.282;2023-05-08T14:12:53;14.30;;;5.43;;
78346;SDS011;67803;41.330;69.282;2023-05-08T14:15:24;15.60;;;5.85;;
78346;SDS011;67803;41.330;69.282;2023-05-08T14:17:55;22.75;;;6.63;;
78346;SDS011;67803;41.330;69.282;2023-05-08T14:20:25;18.48;;;5.72;;
78346;SDS011;67803;41.330;69.282;2023-05-08T14:22:56;20.73;;;6.22;;
78346;SDS011;67803;41.330;69.282;2023-05-08T14:25:26;22.13;;;6.22;;
78346;SDS011;67803;41.330;69.282;2023-05-08T14:27:56;18.30;;;6.35;;
78346;SDS011;67803;41.330;69.282;2023-05-08T14:30:27;17.85;;;6.35;;
78346;SDS011;67803;41.330;69.282;2023-05-08T14:32:57;17.40;;;6.15;;
78346;SDS011;67803;41.330;69.282;2023-05-08T14:35:28;22.08;;;8.23;;
78346;SDS011;67803;41.330;69.282;2023-05-08T14:37:58;20.67;;;7.10;;
78346;SDS011;67803;41.330;69.282;2023-05-08T14:40:29;19.90;;;6.50;;
78346;SDS011;67803;41.330;69.282;2023-05-08T14:42:59;16.50;;;5.95;;
78346;SDS011;67803;41.330;69.282;2023-05-08T14:45:30;20.38;;;6.32;;
78346;SDS011;67803;41.330;69.282;2023-05-08T14:48:00;19.30;;;6.28;;
78346;SDS011;67803;41.330;69.282;2023-05-08T14:50:31;23.75;;;7.07;;
78346;SDS011;67803;41.330;69.282;2023-05-08T14:53:01;26.58;;;7.15;;
78346;SDS011;67803;41.330;69.282;2023-05-08T14:55:32;20.67;;;6.75;;
78346;SDS011;67803;41.330;69.282;2023-05-08T14:58:03;19.65;;;5.82;;
78346;SDS011;67803;41.330;69.282;2023-05-08T15:00:34;17.55;;;6.65;;
78346;SDS011;67803;41.330;69.282;2023-05-08T15:03:04;15.65;;;6.85;;
78346;SDS011;67803;41.330;69.282;2023-05-08T15:05:35;14.80;;;6.78;;
78346;SDS011;67803;41.330;69.282;2023-05-08T15:08:05;20.67;;;7.22;;
78346;SDS011;67803;41.330;69.282;2023-05-08T15:10:36;18.65;;;7.13;;
78346;SDS011;67803;41.330;69.282;2023-05-08T15:13:06;19.90;;;7.10;;
78346;SDS011;67803;41.330;69.282;2023-05-08T15:15:37;19.58;;;7.43;;
78346;SDS011;67803;41.330;69.282;2023-05-08T15:18:07;23.45;;;8.48;;
78346;SDS011;67803;41.330;69.282;2023-05-08T15:20:37;15.48;;;7.10;;
78346;SDS011;67803;41.330;69.282;2023-05-08T15:23:08;19.13;;;7.45;;
78346;SDS011;67803;41.330;69.282;2023-05-08T15:25:38;24.05;;;8.23;;
78346;SDS011;67803;41.330;69.282;2023-05-08T15:28:09;21.63;;;9.95;;
78346;SDS011;67803;41.330;69.282;2023-05-08T15:30:39;19.25;;;8.10;;
78346;SDS011;67803;41.330;69.282;2023-05-08T15:33:10;24.15;;;9.00;;
78346;SDS011;67803;41.330;69.282;2023-05-08T15:35:40;24.85;;;9.00;;
78346;SDS011;67803;41.330;69.282;2023-05-08T15:38:10;28.63;;;9.98;;
78346;SDS011;67803;41.330;69.282;2023-05-08T15:40:41;20.20;;;8.23;;